Jeffersonville, Kentucky
Current Conditions -  °F | °C
As of 3:35 PM on Saturday 20 Dec 2014 (Local Time) from KIOB Reporting Station
Overcast Overcast  
Wind Chill: 30°   Ceiling: 4800
Heat Index: 34°   Visibility: 10mi
Dew Point: 28°   Wind: 5mph
Humidity: 81%   Direction: 60°ENE
Pressure: 30.23"   Gusts: NA
Location:  37.97°N, 83.84°W
Report Text: KIOB 202035Z AUTO 06004KT 10SM SCT018 OVC048 01/M02 A3023 RMK AO2
Loading
Personal Weather Stations






























Interactive Weather Map New forecast layout! Learn more

10-Day Weather Forecast

Advertisements
Track Severe Weather on mobile